Time;durP1;ratioP1;P1;durP2;ratioP2;P2;SDS_P1;SDS_P2;PMS_P1;PMS_P2;Temp;Humidity;BMP_temperature;BMP_pressure;BME280_temperature;BME280_humidity;BME280_pressure;Samples;Min_cycle;Max_cycle;Signal;HPM_P1;HPM_P2
2021/08/29 00:01:10;;;;;;;1.60;1.33;;;24.70;58.60;;;;;;5082939;28;20025;-35
2021/08/29 00:03:36;;;;;;;1.67;1.58;;;24.70;58.70;;;;;;5083180;28;20033;-35
2021/08/29 00:06:02;;;;;;;1.80;1.55;;;24.70;58.90;;;;;;5082092;28;20025;-35
2021/08/29 00:08:28;;;;;;;1.65;1.42;;;24.70;59.20;;;;;;5082436;28;20143;-35
2021/08/29 00:10:54;;;;;;;1.67;1.50;;;24.70;59.70;;;;;;5082905;28;20020;-35
2021/08/29 00:13:20;;;;;;;3.78;1.60;;;24.70;60.00;;;;;;5082554;28;20050;-35
2021/08/29 00:15:46;;;;;;;1.90;1.60;;;24.70;60.00;;;;;;5082840;28;20087;-35
2021/08/29 00:18:12;;;;;;;1.40;1.30;;;24.70;60.00;;;;;;5082275;28;20481;-36
2021/08/29 00:20:39;;;;;;;1.98;1.70;;;24.70;60.00;;;;;;5076388;28;20040;-35
2021/08/29 00:23:05;;;;;;;2.28;1.63;;;24.70;60.20;;;;;;5062717;28;20057;-35
2021/08/29 00:25:31;;;;;;;1.77;1.30;;;24.80;60.40;;;;;;5062518;28;20024;-35
2021/08/29 00:27:57;;;;;;;2.03;1.38;;;24.80;59.90;;;;;;5062394;28;20049;-35
2021/08/29 00:30:23;;;;;;;1.60;1.40;;;24.80;59.00;;;;;;5062649;28;20052;-36
2021/08/29 00:32:49;;;;;;;1.65;1.40;;;24.80;58.90;;;;;;5062534;28;20032;-36
2021/08/29 00:35:15;;;;;;;1.33;1.23;;;24.80;58.90;;;;;;5062702;28;20402;-35
2021/08/29 00:37:42;;;;;;;2.03;1.58;;;24.70;59.10;;;;;;5075261;28;20029;-35
2021/08/29 00:40:08;;;;;;;1.48;1.38;;;24.80;59.60;;;;;;5082145;28;20601;-35
2021/08/29 00:42:35;;;;;;;2.28;1.65;;;24.80;59.90;;;;;;5082505;28;20111;-35
2021/08/29 00:45:01;;;;;;;2.25;1.50;;;24.80;60.30;;;;;;5085632;28;20107;-35
2021/08/29 00:47:29;;;;;;;2.25;1.75;;;24.80;60.20;;;;;;5086641;28;20025;-36
2021/08/29 00:49:55;;;;;;;2.40;1.80;;;24.80;60.30;;;;;;5067955;28;20048;-35
2021/08/29 00:52:21;;;;;;;1.67;1.58;;;24.80;60.30;;;;;;5066268;28;20029;-35
2021/08/29 00:54:47;;;;;;;1.63;1.52;;;24.80;60.30;;;;;;5066162;28;20414;-35
2021/08/29 00:57:14;;;;;;;2.17;1.70;;;24.80;60.70;;;;;;5066263;28;20032;-36
2021/08/29 00:59:40;;;;;;;1.80;1.70;;;24.80;60.80;;;;;;5050893;28;20029;-35
2021/08/29 01:02:18;;;;;;;1.88;1.70;;;24.80;61.10;;;;;;5066274;28;20033;-36
2021/08/29 01:05:12;;;;;;;2.20;1.77;;;24.80;61.20;;;;;;5066262;28;20029;-35
2021/08/29 01:08:01;;;;;;;1.75;1.60;;;24.80;61.40;;;;;;5060359;28;20028;-36
2021/08/29 01:10:40;;;;;;;2.70;1.88;;;24.80;61.50;;;;;;5067987;28;20025;-36
2021/08/29 01:13:06;;;;;;;1.77;1.65;;;24.90;61.50;;;;;;5082066;28;20028;-35
2021/08/29 01:15:32;;;;;;;2.08;1.55;;;24.90;61.50;;;;;;5048177;28;20040;-35
2021/08/29 01:17:59;;;;;;;1.83;1.55;;;24.90;61.50;;;;;;5065779;28;20561;-38
2021/08/29 01:20:51;;;;;;;2.00;1.80;;;24.90;61.60;;;;;;5052161;28;20056;-35
2021/08/29 01:23:19;;;;;;;1.70;1.35;;;24.90;61.70;;;;;;5074996;28;20066;-35
2021/08/29 01:25:48;;;;;;;2.00;1.77;;;24.90;61.70;;;;;;5051554;28;20028;-39
2021/08/29 01:28:16;;;;;;;1.65;1.55;;;24.90;61.80;;;;;;5085973;28;20029;-36
2021/08/29 01:30:45;;;;;;;2.22;1.60;;;25.00;61.90;;;;;;5085520;28;20029;-36
2021/08/29 01:33:12;;;;;;;1.67;1.52;;;25.00;62.00;;;;;;5051167;28;20025;-36
2021/08/29 01:35:38;;;;;;;1.65;1.55;;;25.00;62.00;;;;;;5051224;28;20060;-36
2021/08/29 01:38:06;;;;;;;3.40;1.65;;;25.00;62.10;;;;;;5085515;28;20044;-36
2021/08/29 01:40:33;;;;;;;2.03;1.35;;;25.00;62.10;;;;;;5067344;28;20040;-35
2021/08/29 01:42:59;;;;;;;1.70;1.60;;;25.00;62.20;;;;;;5067707;28;20050;-36
2021/08/29 01:45:29;;;;;;;2.63;1.70;;;25.00;62.30;;;;;;5085468;28;20047;-36
2021/08/29 01:47:56;;;;;;;1.92;1.50;;;25.00;62.20;;;;;;5067603;28;20032;-35
2021/08/29 01:50:22;;;;;;;2.20;1.70;;;25.00;62.30;;;;;;5063221;28;20052;-36
2021/08/29 01:52:48;;;;;;;2.53;1.60;;;25.00;62.30;;;;;;5065411;28;20032;-36
2021/08/29 01:55:14;;;;;;;1.70;1.60;;;25.00;62.30;;;;;;5064524;28;20053;-35
2021/08/29 01:57:40;;;;;;;1.75;1.52;;;25.00;62.40;;;;;;5065468;28;20029;-36
2021/08/29 02:00:07;;;;;;;1.60;1.50;;;25.00;62.40;;;;;;5064988;28;20063;-36
2021/08/29 02:02:33;;;;;;;1.67;1.52;;;25.00;62.40;;;;;;5065338;28;20029;-36
2021/08/29 02:04:59;;;;;;;2.33;1.80;;;25.00;62.40;;;;;;5047370;28;20029;-36
2021/08/29 02:07:33;;;;;;;1.60;1.50;;;25.00;62.40;;;;;;5057484;28;20120;-36
2021/08/29 02:10:07;;;;;;;2.10;1.80;;;25.10;62.50;;;;;;5050755;28;20048;-36
2021/08/29 02:12:42;;;;;;;2.00;1.80;;;25.10;62.60;;;;;;5070350;28;20502;-36
2021/08/29 02:15:16;;;;;;;2.08;1.83;;;25.10;62.60;;;;;;5048198;28;20089;-35
2021/08/29 02:17:42;;;;;;;3.38;1.90;;;25.10;62.70;;;;;;5064854;28;20060;-36
2021/08/29 02:20:12;;;;;;;2.35;1.73;;;25.10;62.80;;;;;;5048886;28;20037;-35
2021/08/29 02:22:38;;;;;;;1.80;1.65;;;25.10;62.80;;;;;;5050372;28;20056;-35
2021/08/29 02:25:05;;;;;;;2.45;1.52;;;25.10;62.80;;;;;;5066682;28;20054;-36
2021/08/29 02:27:31;;;;;;;1.60;1.50;;;25.10;63.50;;;;;;5067127;28;20036;-36
2021/08/29 02:29:59;;;;;;;2.00;1.70;;;25.10;62.90;;;;;;5066583;28;20040;-36
2021/08/29 02:32:25;;;;;;;1.85;1.50;;;25.10;62.90;;;;;;5067109;28;20043;-36
2021/08/29 02:34:51;;;;;;;1.75;1.48;;;25.10;62.90;;;;;;5066661;28;20048;-36
2021/08/29 02:37:17;;;;;;;1.77;1.55;;;25.10;62.90;;;;;;5066532;28;20029;-36
2021/08/29 02:39:43;;;;;;;1.70;1.58;;;25.10;62.90;;;;;;5066612;28;20052;-36
2021/08/29 02:42:10;;;;;;;2.65;1.70;;;25.10;62.90;;;;;;5084455;28;20042;-36
2021/08/29 02:44:37;;;;;;;2.03;1.70;;;25.20;63.00;;;;;;5049977;28;20108;-36
2021/08/29 02:47:03;;;;;;;1.88;1.58;;;25.10;62.90;;;;;;5066809;28;20071;-36
2021/08/29 02:49:30;;;;;;;1.88;1.67;;;25.20;63.00;;;;;;5066593;28;20405;-36
2021/08/29 02:51:56;;;;;;;1.77;1.60;;;25.20;63.10;;;;;;5067033;28;20037;-35
2021/08/29 02:54:22;;;;;;;2.15;1.77;;;25.20;63.10;;;;;;5042842;28;20049;-36
2021/08/29 02:56:49;;;;;;;1.37;1.27;;;25.20;63.20;;;;;;5044126;28;20067;-35
2021/08/29 02:59:16;;;;;;;1.95;1.55;;;25.20;63.10;;;;;;5043990;28;20041;-35
2021/08/29 03:01:43;;;;;;;1.75;1.65;;;25.20;63.20;;;;;;5058428;28;20037;-36
2021/08/29 03:04:09;;;;;;;1.70;1.60;;;25.10;63.10;;;;;;5064087;28;20032;-35
2021/08/29 03:06:36;;;;;;;2.30;1.88;;;25.20;63.30;;;;;;5062765;28;20117;-36
2021/08/29 03:09:02;;;;;;;2.45;1.90;;;25.20;63.30;;;;;;5063127;28;20187;-36
2021/08/29 03:11:29;;;;;;;1.60;1.50;;;25.20;63.30;;;;;;5063856;28;20151;-35
2021/08/29 03:13:55;;;;;;;2.47;1.95;;;25.20;63.30;;;;;;5062533;28;20092;-36
2021/08/29 03:16:21;;;;;;;1.90;1.70;;;25.20;63.30;;;;;;5063958;28;20025;-36
2021/08/29 03:18:47;;;;;;;1.95;1.83;;;25.20;63.40;;;;;;5045881;28;20051;-37
2021/08/29 03:21:14;;;;;;;1.67;1.58;;;25.20;63.40;;;;;;5053923;28;20025;-35
2021/08/29 03:23:40;;;;;;;1.83;1.73;;;25.20;63.40;;;;;;5063566;28;20037;-35
2021/08/29 03:26:06;;;;;;;2.03;1.70;;;25.20;63.40;;;;;;5063656;28;20277;-35
2021/08/29 03:28:33;;;;;;;1.87;1.77;;;25.20;63.40;;;;;;5063698;28;20286;-36
2021/08/29 03:30:59;;;;;;;1.77;1.67;;;25.20;63.40;;;;;;5063299;28;20055;-35
2021/08/29 03:33:25;;;;;;;1.88;1.75;;;25.20;63.40;;;;;;5063650;28;20069;-36
2021/08/29 03:35:52;;;;;;;1.70;1.57;;;25.20;63.50;;;;;;5063226;28;20029;-36
2021/08/29 03:38:20;;;;;;;2.15;1.60;;;25.20;63.40;;;;;;5045568;28;20033;-35
2021/08/29 03:40:47;;;;;;;2.28;1.88;;;25.20;63.50;;;;;;5043157;28;20045;-37
2021/08/29 03:43:14;;;;;;;2.20;1.60;;;25.20;63.50;;;;;;5009588;28;20025;-36
2021/08/29 03:45:41;;;;;;;1.60;1.50;;;25.20;63.50;;;;;;5043423;28;20030;-36
2021/08/29 03:48:09;;;;;;;1.65;1.55;;;25.20;63.60;;;;;;5043401;28;20029;-36
2021/08/29 03:50:36;;;;;;;1.90;1.70;;;25.20;63.70;;;;;;5046602;28;20042;-35
2021/08/29 03:53:03;;;;;;;1.77;1.67;;;25.20;63.60;;;;;;5042613;28;20025;-36
2021/08/29 03:55:29;;;;;;;2.30;1.90;;;25.20;63.70;;;;;;5043225;28;20037;-36
2021/08/29 03:57:56;;;;;;;2.10;1.90;;;25.20;63.60;;;;;;5043249;28;20040;-36
2021/08/29 04:00:23;;;;;;;1.90;1.70;;;25.20;63.60;;;;;;5043184;28;20045;-36
2021/08/29 04:02:50;;;;;;;2.20;2.00;;;25.20;63.60;;;;;;5042972;28;20159;-35
2021/08/29 04:05:16;;;;;;;2.03;1.83;;;25.20;63.60;;;;;;5042895;28;20033;-36
2021/08/29 04:07:43;;;;;;;2.10;1.90;;;25.20;63.60;;;;;;5055583;28;20043;-35
2021/08/29 04:10:09;;;;;;;2.10;1.85;;;25.20;63.60;;;;;;5062803;28;20050;-36
2021/08/29 04:12:37;;;;;;;2.70;1.77;;;25.20;63.70;;;;;;5062646;28;20099;-36
2021/08/29 04:15:03;;;;;;;1.65;1.55;;;25.20;63.80;;;;;;5062902;28;20414;-36
2021/08/29 04:17:31;;;;;;;2.17;1.98;;;25.20;63.80;;;;;;5062452;28;20390;-36
2021/08/29 04:19:57;;;;;;;2.00;1.80;;;25.20;63.90;;;;;;5046706;28;20061;-36
2021/08/29 04:22:23;;;;;;;3.05;1.73;;;25.20;63.90;;;;;;5028190;28;20029;-35
2021/08/29 04:24:49;;;;;;;1.87;1.77;;;25.20;63.90;;;;;;5044657;28;20036;-35
2021/08/29 04:27:16;;;;;;;3.83;2.05;;;25.20;63.90;;;;;;5062741;28;20403;-36
2021/08/29 04:29:42;;;;;;;2.07;1.80;;;25.20;63.90;;;;;;5062651;28;20029;-36
2021/08/29 04:32:09;;;;;;;2.23;1.60;;;25.20;64.00;;;;;;5062563;28;20269;-36
2021/08/29 04:34:38;;;;;;;2.53;2.05;;;25.20;63.90;;;;;;5044688;28;20297;-36
2021/08/29 04:37:08;;;;;;;1.63;1.52;;;25.20;63.90;;;;;;5054594;28;20175;-35
2021/08/29 04:39:35;;;;;;;2.17;1.90;;;25.20;63.90;;;;;;5042273;28;20069;-35
2021/08/29 04:42:01;;;;;;;1.98;1.73;;;25.20;63.90;;;;;;5024921;28;20546;-36
2021/08/29 04:44:28;;;;;;;2.17;1.90;;;25.20;63.90;;;;;;5024478;28;20036;-36
2021/08/29 04:46:54;;;;;;;1.88;1.67;;;25.20;64.00;;;;;;5042453;28;20035;-36
2021/08/29 04:49:20;;;;;;;1.58;1.48;;;25.20;64.10;;;;;;5042432;28;20037;-36
2021/08/29 04:51:46;;;;;;;2.53;1.83;;;25.20;64.20;;;;;;5045361;28;20030;-36
2021/08/29 04:54:12;;;;;;;1.60;1.50;;;25.20;64.10;;;;;;5042134;28;20077;-36
2021/08/29 04:56:38;;;;;;;2.15;1.95;;;25.20;64.10;;;;;;5058694;28;20021;-36
2021/08/29 04:59:04;;;;;;;2.22;1.80;;;25.20;64.80;;;;;;5062241;28;20025;-36
2021/08/29 05:01:31;;;;;;;2.20;1.63;;;25.20;64.00;;;;;;5044363;28;20025;-36
2021/08/29 05:03:58;;;;;;;3.23;2.27;;;25.20;64.00;;;;;;5061931;28;20052;-36
2021/08/29 05:06:26;;;;;;;1.60;1.50;;;25.20;64.00;;;;;;5061626;28;20105;-36
2021/08/29 05:08:53;;;;;;;1.95;1.67;;;25.20;64.00;;;;;;5061234;28;20032;-36
2021/08/29 05:11:20;;;;;;;1.48;1.38;;;25.20;64.00;;;;;;5061261;28;20804;-35
2021/08/29 05:13:46;;;;;;;1.73;1.63;;;25.20;63.90;;;;;;5062003;28;20025;-36
2021/08/29 05:16:12;;;;;;;1.92;1.67;;;25.20;64.00;;;;;;5061956;28;20108;-36
2021/08/29 05:18:38;;;;;;;2.22;1.80;;;25.20;64.00;;;;;;5061963;28;20037;-36
2021/08/29 05:21:04;;;;;;;1.60;1.50;;;25.20;64.00;;;;;;5062053;28;20025;-36
2021/08/29 05:23:30;;;;;;;3.23;1.83;;;25.20;64.00;;;;;;5062083;28;20539;-35
2021/08/29 05:25:57;;;;;;;1.60;1.50;;;25.20;64.00;;;;;;5061425;28;20100;-36
2021/08/29 05:28:23;;;;;;;1.98;1.75;;;25.20;64.00;;;;;;5062025;28;20037;-35
2021/08/29 05:30:49;;;;;;;1.90;1.70;;;25.20;64.10;;;;;;5064408;28;20044;-35
2021/08/29 05:33:15;;;;;;;2.28;1.83;;;25.20;64.10;;;;;;5065282;28;20048;-36
2021/08/29 05:35:41;;;;;;;1.43;1.33;;;25.20;64.10;;;;;;5065553;28;20025;-36
2021/08/29 05:38:08;;;;;;;1.77;1.65;;;25.20;64.20;;;;;;5065323;28;20033;-35
2021/08/29 05:40:34;;;;;;;1.80;1.58;;;25.10;64.10;;;;;;5046107;28;20109;-36
2021/08/29 05:43:00;;;;;;;1.95;1.67;;;25.10;64.10;;;;;;5045445;28;20153;-36
2021/08/29 05:45:27;;;;;;;2.20;1.77;;;25.20;64.20;;;;;;5045385;28;20029;-36
2021/08/29 05:47:53;;;;;;;2.63;1.85;;;25.20;64.20;;;;;;5045644;28;20041;-36
2021/08/29 05:50:19;;;;;;;2.25;1.75;;;25.20;64.40;;;;;;5052104;28;20019;-36
2021/08/29 05:52:45;;;;;;;1.92;1.75;;;25.20;64.40;;;;;;5065362;28;20050;-36
2021/08/29 05:55:11;;;;;;;2.15;1.52;;;25.20;64.30;;;;;;5064764;28;20067;-36
2021/08/29 05:57:37;;;;;;;2.22;1.90;;;25.20;64.20;;;;;;5064911;28;20029;-36
2021/08/29 06:00:04;;;;;;;1.92;1.63;;;25.20;64.20;;;;;;5065274;28;20044;-35
2021/08/29 06:02:30;;;;;;;2.70;1.55;;;25.20;64.20;;;;;;5064008;28;20091;-36
2021/08/29 06:04:56;;;;;;;2.83;2.05;;;25.20;64.20;;;;;;5065024;28;20033;-36
2021/08/29 06:07:22;;;;;;;2.28;1.77;;;25.10;64.30;;;;;;5054644;28;20115;-35
2021/08/29 06:09:49;;;;;;;1.90;1.70;;;25.10;64.40;;;;;;5044676;28;20038;-36
2021/08/29 06:12:15;;;;;;;1.90;1.70;;;25.10;64.40;;;;;;5044955;28;20064;-36
2021/08/29 06:14:41;;;;;;;1.85;1.75;;;25.10;64.30;;;;;;5044882;28;20037;-35
2021/08/29 06:17:07;;;;;;;2.27;1.63;;;25.10;64.40;;;;;;5044483;28;20029;-36
2021/08/29 06:19:33;;;;;;;1.50;1.40;;;25.10;64.30;;;;;;5044650;28;20294;-42
2021/08/29 06:21:59;;;;;;;1.85;1.70;;;25.10;64.40;;;;;;5044640;28;20464;-37
2021/08/29 06:24:26;;;;;;;1.70;1.60;;;25.10;64.30;;;;;;5044481;28;20092;-36
2021/08/29 06:26:52;;;;;;;2.00;1.80;;;25.10;64.50;;;;;;5057026;28;20032;-35
2021/08/29 06:29:19;;;;;;;2.00;1.70;;;25.10;64.60;;;;;;5064211;28;20048;-37
2021/08/29 06:31:45;;;;;;;2.05;1.70;;;25.10;64.40;;;;;;5064484;28;20033;-36
2021/08/29 06:34:11;;;;;;;1.65;1.55;;;25.10;64.40;;;;;;5064446;28;20508;-36
2021/08/29 06:36:37;;;;;;;1.75;1.65;;;25.10;64.30;;;;;;5064274;28;20025;-36
2021/08/29 06:39:04;;;;;;;3.10;1.63;;;25.10;64.30;;;;;;5057497;28;20034;-36
2021/08/29 06:41:30;;;;;;;1.60;1.50;;;25.10;64.20;;;;;;5044173;28;20030;-36
2021/08/29 06:43:57;;;;;;;3.03;2.10;;;25.10;64.20;;;;;;5044410;28;20041;-36
2021/08/29 06:46:23;;;;;;;2.45;1.60;;;25.10;64.40;;;;;;5043972;28;20033;-36
2021/08/29 06:48:49;;;;;;;1.70;1.60;;;25.10;64.60;;;;;;5044086;28;20029;-36
2021/08/29 06:51:15;;;;;;;2.33;1.65;;;25.10;64.60;;;;;;5058841;28;20060;-36
2021/08/29 06:53:42;;;;;;;1.80;1.70;;;25.10;64.70;;;;;;5063780;28;20048;-36
2021/08/29 06:56:08;;;;;;;1.77;1.50;;;25.00;64.60;;;;;;5063568;28;20029;-36
2021/08/29 06:58:34;;;;;;;1.67;1.58;;;25.10;64.70;;;;;;5063833;28;20768;-36
2021/08/29 07:01:00;;;;;;;2.05;1.85;;;25.10;64.80;;;;;;5063996;28;20051;-36
2021/08/29 07:03:26;;;;;;;1.90;1.67;;;25.10;64.80;;;;;;5063195;28;20090;-35
2021/08/29 07:05:52;;;;;;;2.67;1.88;;;25.10;64.80;;;;;;5063822;28;20041;-36
2021/08/29 07:08:19;;;;;;;1.70;1.60;;;25.10;64.80;;;;;;5062908;28;20116;-36
2021/08/29 07:10:45;;;;;;;2.35;1.50;;;25.10;64.70;;;;;;5043690;28;20029;-36
2021/08/29 07:13:11;;;;;;;1.52;1.40;;;25.00;64.60;;;;;;5043760;28;20025;-35
2021/08/29 07:15:37;;;;;;;1.95;1.70;;;25.10;64.50;;;;;;5057137;28;20068;-35
2021/08/29 07:18:03;;;;;;;1.92;1.83;;;25.10;64.50;;;;;;5063235;28;20040;-36
2021/08/29 07:20:29;;;;;;;1.65;1.45;;;25.10;64.50;;;;;;5063724;28;20056;-36
2021/08/29 07:22:55;;;;;;;1.92;1.63;;;25.10;64.50;;;;;;5063346;28;20021;-35
2021/08/29 07:25:21;;;;;;;2.50;1.83;;;25.10;64.70;;;;;;5063382;28;20025;-36
2021/08/29 07:27:48;;;;;;;2.15;1.80;;;25.10;64.80;;;;;;5062951;28;20108;-36
2021/08/29 07:30:14;;;;;;;1.92;1.73;;;25.10;65.00;;;;;;5063337;28;20035;-36
2021/08/29 07:32:40;;;;;;;1.73;1.52;;;25.00;64.90;;;;;;5063415;28;20029;-36
2021/08/29 07:35:07;;;;;;;1.90;1.80;;;25.00;65.00;;;;;;5063213;28;20046;-36
2021/08/29 07:37:33;;;;;;;2.33;1.48;;;25.00;65.00;;;;;;5063082;28;20120;-35
2021/08/29 07:39:59;;;;;;;2.33;1.50;;;25.00;65.00;;;;;;5062715;28;20096;-35
2021/08/29 07:42:25;;;;;;;1.70;1.60;;;25.00;64.90;;;;;;5063089;28;20021;-36
2021/08/29 07:44:51;;;;;;;2.03;1.60;;;25.00;65.00;;;;;;5062998;28;20629;-36
2021/08/29 07:47:17;;;;;;;2.50;1.67;;;25.00;64.70;;;;;;5062682;28;20021;-36
2021/08/29 07:49:43;;;;;;;2.28;1.65;;;25.00;64.60;;;;;;5063042;28;20108;-35
2021/08/29 07:52:11;;;;;;;1.98;1.67;;;25.00;64.60;;;;;;5062642;28;20029;-36
2021/08/29 07:54:37;;;;;;;;;;;25.00;64.60;;;;;;5062802;28;20057;-36
2021/08/29 07:57:03;;;;;;;2.28;1.48;;;25.00;64.60;;;;;;5062181;28;20008;-36
2021/08/29 07:59:29;;;;;;;2.28;1.70;;;25.00;64.60;;;;;;5062982;28;20063;-36
2021/08/29 08:01:55;;;;;;;2.30;1.75;;;25.00;64.60;;;;;;5062832;28;20021;-35
2021/08/29 08:04:21;;;;;;;1.55;1.45;;;25.00;64.60;;;;;;5062691;28;20024;-35
2021/08/29 08:06:47;;;;;;;1.70;1.60;;;25.00;64.70;;;;;;5057390;28;20711;-36
2021/08/29 08:09:13;;;;;;;2.28;1.75;;;25.00;64.70;;;;;;5050264;28;20072;-36
2021/08/29 08:11:39;;;;;;;1.63;1.45;;;25.00;64.70;;;;;;5062616;28;20413;-36
2021/08/29 08:14:06;;;;;;;1.83;1.67;;;25.00;64.80;;;;;;5062623;28;20025;-36
2021/08/29 08:16:32;;;;;;;2.23;1.63;;;25.00;64.80;;;;;;5062412;28;20033;-36
2021/08/29 08:18:58;;;;;;;2.73;1.40;;;25.00;64.80;;;;;;5062293;28;20106;-36
2021/08/29 08:21:24;;;;;;;1.85;1.42;;;25.00;64.70;;;;;;5062371;28;20025;-43
2021/08/29 08:23:51;;;;;;;2.20;2.00;;;25.00;64.70;;;;;;5062317;28;20029;-36
2021/08/29 08:26:17;;;;;;;1.73;1.52;;;25.00;64.70;;;;;;5062178;28;20041;-36
2021/08/29 08:28:43;;;;;;;2.40;1.80;;;25.00;64.70;;;;;;5062055;28;20178;-36
2021/08/29 08:31:09;;;;;;;1.73;1.42;;;25.00;64.70;;;;;;5060820;28;20021;-36
2021/08/29 08:33:35;;;;;;;1.90;1.70;;;25.00;64.70;;;;;;5062373;28;20059;-35
2021/08/29 08:36:01;;;;;;;2.17;1.45;;;25.00;64.70;;;;;;5062353;28;20025;-36
2021/08/29 08:38:27;;;;;;;2.08;1.70;;;25.00;64.70;;;;;;5060284;28;20078;-36
2021/08/29 08:40:54;;;;;;;2.08;1.70;;;25.00;64.80;;;;;;5042071;28;20037;-36
2021/08/29 08:43:20;;;;;;;1.70;1.60;;;24.90;64.70;;;;;;5042331;28;20083;-36
2021/08/29 08:45:47;;;;;;;3.08;1.50;;;25.00;64.80;;;;;;5024498;28;20097;-36
2021/08/29 08:48:13;;;;;;;1.77;1.48;;;24.90;64.80;;;;;;5041974;28;20536;-36
2021/08/29 08:50:40;;;;;;;2.30;1.63;;;24.90;64.80;;;;;;5042251;28;20036;-36
2021/08/29 08:53:06;;;;;;;2.65;1.58;;;24.90;64.80;;;;;;5008142;28;20049;-36
2021/08/29 08:55:32;;;;;;;2.08;1.75;;;24.90;64.80;;;;;;5041850;28;20049;-36
2021/08/29 08:57:58;;;;;;;1.67;1.57;;;24.90;64.80;;;;;;5041932;28;20041;-36
2021/08/29 09:00:26;;;;;;;1.75;1.65;;;24.90;64.80;;;;;;5024123;28;20060;-36
2021/08/29 09:02:52;;;;;;;1.65;1.52;;;24.90;64.80;;;;;;5042115;28;20028;-37
2021/08/29 09:05:19;;;;;;;2.10;1.70;;;24.90;64.80;;;;;;5044089;28;20048;-36
2021/08/29 09:07:45;;;;;;;1.83;1.48;;;24.90;64.80;;;;;;5041439;28;20025;-35
2021/08/29 09:10:11;;;;;;;1.65;1.48;;;24.90;64.80;;;;;;5040129;28;20041;-36
2021/08/29 09:12:56;;;;;;;1.70;1.60;;;24.90;64.80;;;;;;5065861;28;20032;-36
2021/08/29 09:15:22;;;;;;;1.73;1.50;;;24.90;64.90;;;;;;5049633;28;20036;-36
2021/08/29 09:17:48;;;;;;;2.10;1.90;;;24.90;64.90;;;;;;5065676;28;20063;-36
2021/08/29 09:20:26;;;;;;;1.98;1.70;;;24.90;64.90;;;;;;5064078;28;20033;-36
2021/08/29 09:22:57;;;;;;;3.72;1.83;;;24.90;64.90;;;;;;5065488;28;20477;-36
2021/08/29 09:25:25;;;;;;;1.67;1.42;;;24.90;65.00;;;;;;5065374;28;20079;-36
2021/08/29 09:27:53;;;;;;;2.92;1.60;;;24.90;65.00;;;;;;5066921;28;20055;-36
2021/08/29 09:30:19;;;;;;;1.95;1.60;;;24.90;65.00;;;;;;5065256;28;20804;-36
2021/08/29 09:32:57;;;;;;;1.52;1.40;;;24.90;65.00;;;;;;5065758;28;20025;-36
2021/08/29 09:35:26;;;;;;;1.60;1.50;;;24.90;65.00;;;;;;5065381;28;20029;-36
2021/08/29 09:37:53;;;;;;;2.90;1.80;;;24.90;65.00;;;;;;5047391;28;20097;-36
2021/08/29 09:40:27;;;;;;;2.42;1.77;;;24.90;65.70;;;;;;5046823;28;20044;-35
2021/08/29 09:42:55;;;;;;;1.83;1.45;;;24.90;65.00;;;;;;5065422;28;20033;-36
2021/08/29 09:45:26;;;;;;;1.48;1.38;;;24.90;65.00;;;;;;5065226;28;20029;-36
2021/08/29 09:47:52;;;;;;;1.80;1.48;;;24.90;65.00;;;;;;5065455;28;20031;-36
2021/08/29 09:50:21;;;;;;;1.73;1.63;;;24.90;65.10;;;;;;5065105;28;20013;-36
2021/08/29 09:52:47;;;;;;;2.20;1.80;;;24.90;65.10;;;;;;5065265;28;20107;-35
2021/08/29 09:55:13;;;;;;;2.70;1.70;;;24.90;65.20;;;;;;5046863;28;20045;-36
2021/08/29 09:57:39;;;;;;;1.75;1.65;;;24.90;65.10;;;;;;5065050;28;20258;-36
2021/08/29 10:00:09;;;;;;;1.85;1.48;;;24.90;65.10;;;;;;5064846;28;20036;-36
2021/08/29 10:02:35;;;;;;;2.25;1.77;;;24.90;65.20;;;;;;5065077;28;20057;-36
2021/08/29 10:05:11;;;;;;;2.75;1.60;;;24.90;65.20;;;;;;5046951;28;20032;-36
2021/08/29 10:07:37;;;;;;;3.05;1.60;;;24.90;65.20;;;;;;5052775;28;20033;-36
2021/08/29 10:10:23;;;;;;;2.20;1.77;;;24.90;65.20;;;;;;5059306;28;20100;-36
2021/08/29 10:12:49;;;;;;;2.38;1.60;;;24.90;65.30;;;;;;5064971;28;20072;-36
2021/08/29 10:15:19;;;;;;;1.75;1.58;;;24.80;65.20;;;;;;5046497;28;20032;-36
2021/08/29 10:17:45;;;;;;;1.77;1.60;;;24.90;65.30;;;;;;5064693;28;20039;-36
2021/08/29 10:20:14;;;;;;;4.43;1.60;;;24.90;65.30;;;;;;5064279;28;20037;-36
2021/08/29 10:22:40;;;;;;;1.63;1.50;;;24.90;66.10;;;;;;5047029;28;20093;-36
2021/08/29 10:25:07;;;;;;;1.80;1.63;;;24.90;65.30;;;;;;5064352;28;20140;-36
2021/08/29 10:27:34;;;;;;;1.77;1.42;;;24.90;65.50;;;;;;5030232;28;20184;-36
2021/08/29 10:30:00;;;;;;;;;;;24.90;65.40;;;;;;5046794;28;20055;-35
2021/08/29 10:32:29;;;;;;;1.77;1.67;;;24.90;65.50;;;;;;5063758;28;19916;-36
2021/08/29 10:34:55;;;;;;;2.60;1.58;;;24.90;65.40;;;;;;5045133;28;20089;-36
2021/08/29 10:37:21;;;;;;;2.78;1.98;;;24.90;65.40;;;;;;5056491;28;20083;-36
2021/08/29 10:39:49;;;;;;;2.65;1.90;;;24.90;65.40;;;;;;5046332;28;20691;-36
2021/08/29 10:42:15;;;;;;;2.95;1.35;;;24.90;65.30;;;;;;5064359;28;20048;-36
2021/08/29 10:44:41;;;;;;;1.70;1.55;;;24.90;65.50;;;;;;5046403;28;20021;-36
2021/08/29 10:47:08;;;;;;;1.55;1.45;;;24.90;65.50;;;;;;5064199;28;20032;-36
2021/08/29 10:49:34;;;;;;;1.77;1.67;;;24.90;65.60;;;;;;5046150;28;20117;-36
2021/08/29 10:52:00;;;;;;;2.90;1.80;;;24.80;65.50;;;;;;5046068;28;20036;-36
2021/08/29 10:54:26;;;;;;;1.70;1.60;;;24.90;65.50;;;;;;5046070;28;20804;-36
2021/08/29 10:56:53;;;;;;;2.42;1.92;;;24.90;65.60;;;;;;5063975;28;20025;-36
2021/08/29 10:59:23;;;;;;;1.65;1.52;;;24.90;65.60;;;;;;5063957;28;20067;-36
2021/08/29 11:02:10;;;;;;;2.13;1.80;;;24.90;65.60;;;;;;5063753;28;20032;-36
2021/08/29 11:04:36;;;;;;;2.28;1.65;;;24.80;65.70;;;;;;5051511;28;20034;-36
2021/08/29 11:07:03;;;;;;;1.92;1.73;;;24.90;65.70;;;;;;5057181;28;20631;-36
2021/08/29 11:09:39;;;;;;;;;;;24.90;65.80;;;;;;5074324;28;20036;-36
2021/08/29 11:12:15;;;;;;;1.83;1.52;;;24.90;65.70;;;;;;5063820;28;19931;-36
2021/08/29 11:14:49;;;;;;;2.28;1.80;;;24.90;65.70;;;;;;5063913;28;20060;-35
2021/08/29 11:17:22;;;;;;;1.73;1.42;;;24.90;65.70;;;;;;5064714;28;20031;-36
2021/08/29 11:19:50;;;;;;;2.78;1.67;;;24.90;65.70;;;;;;5063373;28;20059;-36
2021/08/29 11:22:24;;;;;;;2.25;1.50;;;24.90;65.70;;;;;;5063705;28;20021;-36
2021/08/29 11:24:50;;;;;;;1.73;1.52;;;24.90;65.80;;;;;;5063558;28;20025;-36
2021/08/29 11:27:35;;;;;;;2.00;1.75;;;24.90;65.90;;;;;;5062671;28;20048;-36
2021/08/29 11:30:35;;;;;;;1.45;1.35;;;24.90;65.80;;;;;;5063303;28;20033;-35
2021/08/29 11:33:05;;;;;;;1.88;1.73;;;24.90;65.80;;;;;;5063447;28;20025;-35
2021/08/29 11:35:36;;;;;;;1.75;1.50;;;24.90;65.70;;;;;;5063306;28;20115;-36
2021/08/29 11:38:24;;;;;;;3.05;1.80;;;24.90;65.80;;;;;;5079087;28;20028;-36
2021/08/29 11:40:57;;;;;;;2.20;1.90;;;24.90;65.90;;;;;;5083112;28;20036;-36
2021/08/29 11:43:31;;;;;;;2.30;2.10;;;24.90;65.90;;;;;;5083458;28;20032;-36
2021/08/29 11:46:12;;;;;;;1.80;1.70;;;24.90;66.00;;;;;;5083048;28;20031;-36
2021/08/29 11:48:57;;;;;;;2.95;1.55;;;24.90;66.00;;;;;;5083230;28;20090;-36
2021/08/29 11:51:28;;;;;;;1.73;1.55;;;24.90;65.90;;;;;;5067053;28;20025;-36
2021/08/29 11:53:54;;;;;;;2.45;1.90;;;24.90;65.90;;;;;;5062773;28;20106;-36
2021/08/29 11:56:23;;;;;;;3.70;1.90;;;24.90;65.90;;;;;;5062825;28;20093;-36
2021/08/29 11:58:49;;;;;;;1.98;1.65;;;24.90;65.90;;;;;;5062945;28;20041;-36
2021/08/29 12:01:15;;;;;;;2.20;2.00;;;24.80;65.90;;;;;;5062655;28;20061;-36
2021/08/29 12:03:42;;;;;;;1.88;1.60;;;24.80;65.90;;;;;;5044885;28;20036;-36
2021/08/29 12:06:28;;;;;;;1.73;1.55;;;24.80;65.90;;;;;;5062629;28;20037;-35
2021/08/29 12:09:18;;;;;;;2.10;1.67;;;24.80;65.90;;;;;;5044953;28;20065;-35
2021/08/29 12:11:44;;;;;;;2.70;1.77;;;24.90;65.90;;;;;;5047332;28;20036;-36
2021/08/29 12:14:21;;;;;;;1.70;1.60;;;24.80;65.90;;;;;;5044756;28;20776;-36
2021/08/29 12:16:48;;;;;;;2.13;1.55;;;24.80;65.90;;;;;;5062564;28;20089;-35
2021/08/29 12:19:15;;;;;;;1.90;1.63;;;24.90;66.00;;;;;;5062599;28;20052;-36
2021/08/29 12:21:42;;;;;;;1.73;1.63;;;24.80;65.90;;;;;;5080222;28;20027;-35
2021/08/29 12:24:10;;;;;;;3.58;2.72;;;24.80;66.00;;;;;;5082707;28;20036;-36
2021/08/29 12:26:37;;;;;;;1.83;1.70;;;24.80;66.00;;;;;;5064619;28;20564;-36
2021/08/29 12:29:05;;;;;;;1.85;1.70;;;24.90;66.00;;;;;;5082679;28;20025;-36
2021/08/29 12:31:36;;;;;;;1.70;1.60;;;24.80;66.00;;;;;;5082271;28;20028;-35
2021/08/29 12:34:03;;;;;;;1.73;1.63;;;24.90;66.00;;;;;;5082545;28;20032;-35
2021/08/29 12:36:31;;;;;;;2.17;1.98;;;24.90;66.00;;;;;;5079682;28;20021;-36
2021/08/29 12:38:57;;;;;;;1.60;1.50;;;24.90;65.90;;;;;;5055293;28;20051;-35
2021/08/29 12:41:24;;;;;;;2.08;1.85;;;24.80;66.60;;;;;;5082216;28;20025;-36
2021/08/29 12:43:50;;;;;;;1.90;1.70;;;24.80;65.90;;;;;;5082359;28;20031;-35
2021/08/29 12:46:18;;;;;;;3.87;1.83;;;24.80;65.90;;;;;;5082329;28;20481;-36
2021/08/29 12:48:45;;;;;;;1.70;1.60;;;24.80;65.80;;;;;;5064712;28;20029;-35
2021/08/29 12:51:11;;;;;;;3.00;1.60;;;24.90;66.00;;;;;;5068111;28;20028;-36